Time;durP1;ratioP1;P1;durP2;ratioP2;P2;SDS_P1;SDS_P2;PMS_P1;PMS_P2;Temp;Humidity;BMP_temperature;BMP_pressure;BME280_temperature;BME280_humidity;BME280_pressure;Samples;Min_cycle;Max_cycle;Signal;HPM_P1;HPM_P2
2023/03/25 00:01:07;;;;;;;2.10;1.20;;;13.30;78.60;;;;;;4915337;29;20043;-82
2023/03/25 00:03:40;;;;;;;1.85;1.13;;;13.30;78.60;;;;;;4884752;29;20056;-81
2023/03/25 00:06:07;;;;;;;2.05;1.40;;;13.30;78.60;;;;;;4900107;29;20028;-81
2023/03/25 00:08:33;;;;;;;1.83;1.27;;;13.30;78.60;;;;;;4920440;29;20040;-81
2023/03/25 00:11:02;;;;;;;1.77;1.40;;;13.20;78.50;;;;;;4903624;29;20028;-82
2023/03/25 00:13:30;;;;;;;2.20;1.40;;;13.30;78.60;;;;;;4903553;29;20037;-81
2023/03/25 00:15:57;;;;;;;1.25;1.05;;;13.20;78.60;;;;;;4873422;29;20040;-82
2023/03/25 00:18:24;;;;;;;1.40;1.05;;;13.20;78.60;;;;;;4920877;29;20107;-81
2023/03/25 00:20:52;;;;;;;1.65;1.30;;;13.20;78.60;;;;;;4903609;29;20035;-81
2023/03/25 00:23:21;;;;;;;1.75;1.30;;;13.20;78.60;;;;;;4887540;29;20058;-82
2023/03/25 00:25:48;;;;;;;2.17;1.35;;;13.20;78.70;;;;;;4903603;29;20192;-81
2023/03/25 00:28:15;;;;;;;1.52;1.17;;;13.20;78.60;;;;;;4903385;29;20051;-80
2023/03/25 00:30:43;;;;;;;2.30;1.30;;;13.20;78.60;;;;;;4903157;29;20469;-81
2023/03/25 00:33:09;;;;;;;1.60;1.30;;;13.20;78.60;;;;;;4887406;29;20080;-81
2023/03/25 00:35:43;;;;;;;2.08;1.25;;;13.20;78.60;;;;;;4902985;29;20028;-81
2023/03/25 00:38:13;;;;;;;1.75;1.10;;;13.20;78.60;;;;;;4903806;29;20028;-81
2023/03/25 00:40:39;;;;;;;2.58;1.52;;;13.10;78.60;;;;;;4903292;29;20025;-81
2023/03/25 00:43:06;;;;;;;1.17;1.13;;;13.10;78.60;;;;;;4918540;29;20485;-81
2023/03/25 00:45:32;;;;;;;2.90;1.48;;;13.10;78.60;;;;;;4902797;29;20036;-81
2023/03/25 00:47:58;;;;;;;1.83;1.55;;;13.10;78.60;;;;;;4886940;29;20048;-82
2023/03/25 00:50:25;;;;;;;2.30;1.20;;;13.10;78.60;;;;;;4903335;29;20036;-80
2023/03/25 00:52:53;;;;;;;1.15;1.02;;;13.10;78.60;;;;;;4887768;29;20028;-80
2023/03/25 00:55:19;;;;;;;1.95;1.30;;;13.10;78.60;;;;;;4887724;29;20032;-80
2023/03/25 00:57:46;;;;;;;1.92;1.30;;;13.10;78.70;;;;;;4887706;29;20032;-81
2023/03/25 01:00:15;;;;;;;3.65;1.38;;;13.10;78.70;;;;;;4902774;29;20032;-80
2023/03/25 01:02:42;;;;;;;2.17;1.20;;;13.10;78.70;;;;;;4902536;29;20063;-80
2023/03/25 01:05:10;;;;;;;1.40;1.20;;;13.10;78.70;;;;;;4902855;29;20031;-81
2023/03/25 01:07:37;;;;;;;2.10;1.50;;;13.10;78.70;;;;;;4903158;29;20036;-80
2023/03/25 01:10:05;;;;;;;2.00;1.40;;;13.00;78.70;;;;;;4887120;29;20107;-82
2023/03/25 01:12:31;;;;;;;2.30;1.38;;;13.10;78.70;;;;;;4886926;29;20036;-81
2023/03/25 01:14:57;;;;;;;3.55;1.58;;;13.00;78.70;;;;;;4902546;29;20028;-81
2023/03/25 01:17:23;;;;;;;2.25;1.23;;;13.10;78.70;;;;;;4886865;29;20122;-82
2023/03/25 01:19:49;;;;;;;2.72;1.48;;;13.00;78.70;;;;;;4886671;29;20038;-81
2023/03/25 01:22:16;;;;;;;1.30;1.15;;;13.00;78.70;;;;;;4886972;29;20087;-81
2023/03/25 01:24:42;;;;;;;1.30;1.10;;;13.00;78.70;;;;;;4871371;29;20060;-81
2023/03/25 01:27:08;;;;;;;1.40;1.10;;;13.00;78.70;;;;;;4871878;29;20494;-80
2023/03/25 01:29:34;;;;;;;1.58;1.20;;;13.00;78.70;;;;;;4855657;29;20040;-81
2023/03/25 01:32:00;;;;;;;1.20;1.10;;;13.00;78.80;;;;;;4902157;29;20036;-81
2023/03/25 01:34:26;;;;;;;1.67;1.42;;;13.00;78.70;;;;;;4871168;29;20060;-81
2023/03/25 01:36:54;;;;;;;1.67;1.15;;;13.00;78.70;;;;;;4917821;29;20096;-79
2023/03/25 01:39:21;;;;;;;1.40;1.30;;;13.00;78.70;;;;;;4902011;29;20468;-81
2023/03/25 01:41:49;;;;;;;2.92;1.42;;;13.00;78.70;;;;;;4902676;29;20066;-81
2023/03/25 01:44:21;;;;;;;1.98;1.40;;;13.00;78.70;;;;;;4901713;29;20028;-82
2023/03/25 01:46:51;;;;;;;1.45;1.10;;;13.00;78.70;;;;;;4901399;29;20412;-81
2023/03/25 01:49:39;;;;;;;1.42;1.20;;;12.90;78.70;;;;;;4901671;29;20116;-81
2023/03/25 01:52:12;;;;;;;2.45;1.70;;;13.00;78.80;;;;;;4917836;29;20033;-82
2023/03/25 01:54:39;;;;;;;2.05;1.35;;;13.00;78.70;;;;;;4901929;29;20032;-82
2023/03/25 01:57:06;;;;;;;2.33;1.30;;;12.90;78.70;;;;;;4886736;29;20035;-82
2023/03/25 01:59:32;;;;;;;2.42;1.25;;;12.90;78.70;;;;;;4901588;29;20071;-81
2023/03/25 02:02:02;;;;;;;2.33;1.40;;;12.90;78.70;;;;;;4918573;29;20493;-80
2023/03/25 02:04:33;;;;;;;2.15;1.30;;;12.90;78.80;;;;;;4901817;29;20027;-80
2023/03/25 02:07:00;;;;;;;2.20;1.33;;;12.90;78.80;;;;;;4917397;29;20381;-81
2023/03/25 02:09:26;;;;;;;3.55;1.40;;;12.90;78.80;;;;;;4870765;29;20200;-79
2023/03/25 02:11:53;;;;;;;2.75;1.55;;;12.90;78.80;;;;;;4901612;29;20513;-82
2023/03/25 02:14:27;;;;;;;2.15;1.35;;;12.90;78.80;;;;;;4886604;29;20110;-81
2023/03/25 02:17:15;;;;;;;4.05;1.40;;;12.90;78.80;;;;;;4901458;29;20040;-81
2023/03/25 02:20:20;;;;;;;2.70;1.45;;;12.90;78.80;;;;;;4901441;29;20123;-81
2023/03/25 02:23:07;;;;;;;2.85;1.40;;;12.90;78.90;;;;;;4916856;29;20036;-81
2023/03/25 02:26:00;;;;;;;2.00;1.40;;;12.90;78.80;;;;;;4901879;29;20036;-81
2023/03/25 02:29:05;;;;;;;1.45;1.25;;;12.80;78.70;;;;;;4901103;29;20159;-81
2023/03/25 02:31:53;;;;;;;1.58;1.30;;;12.80;78.70;;;;;;4901485;29;20127;-82
2023/03/25 02:34:53;;;;;;;1.67;1.17;;;12.80;78.80;;;;;;4900915;29;20032;-80
2023/03/25 02:37:50;;;;;;;2.50;1.38;;;12.80;78.80;;;;;;4900691;29;20083;-81
2023/03/25 02:40:25;;;;;;;1.52;1.10;;;12.80;78.80;;;;;;4900970;29;20029;-80
2023/03/25 02:42:59;;;;;;;1.58;1.48;;;12.80;78.70;;;;;;4916733;29;20036;-81
2023/03/25 02:45:40;;;;;;;1.52;1.40;;;12.80;78.80;;;;;;4901083;29;20036;-81
2023/03/25 02:48:18;;;;;;;2.95;1.70;;;12.80;78.90;;;;;;4900667;29;20151;-82
2023/03/25 02:50:54;;;;;;;2.28;1.50;;;12.80;78.80;;;;;;4901097;29;20040;-80
2023/03/25 02:53:28;;;;;;;3.85;1.52;;;12.80;78.80;;;;;;4900520;29;20474;-80
2023/03/25 02:55:58;;;;;;;2.07;1.50;;;12.80;78.80;;;;;;4901432;29;20064;-80
2023/03/25 02:58:28;;;;;;;1.85;1.27;;;12.80;78.80;;;;;;4884990;29;20070;-81
2023/03/25 03:00:58;;;;;;;2.83;1.70;;;12.80;78.80;;;;;;4900786;29;20039;-80
2023/03/25 03:03:26;;;;;;;1.27;1.20;;;12.80;78.80;;;;;;4901469;29;20504;-80
2023/03/25 03:06:00;;;;;;;2.08;1.30;;;12.80;78.90;;;;;;4900639;29;20473;-81
2023/03/25 03:08:34;;;;;;;1.65;1.40;;;12.80;78.90;;;;;;4899738;29;20032;-81
2023/03/25 03:11:05;;;;;;;3.40;2.03;;;12.70;78.90;;;;;;4917528;29;20040;-80
2023/03/25 03:13:39;;;;;;;2.88;1.48;;;12.70;78.80;;;;;;4915978;29;20066;-80
2023/03/25 03:16:35;;;;;;;1.52;1.30;;;12.70;78.80;;;;;;4900820;29;20060;-81
2023/03/25 03:19:24;;;;;;;2.10;1.30;;;12.70;78.80;;;;;;4901311;29;20040;-80
2023/03/25 03:22:02;;;;;;;4.20;1.60;;;12.70;78.70;;;;;;4901094;29;20032;-80
2023/03/25 03:24:38;;;;;;;1.40;1.27;;;12.70;78.80;;;;;;4901025;29;20056;-81
2023/03/25 03:27:13;;;;;;;1.92;1.20;;;12.70;78.80;;;;;;4900550;29;20033;-81
2023/03/25 03:29:54;;;;;;;2.17;1.50;;;12.70;78.90;;;;;;4900248;29;20389;-82
2023/03/25 03:32:47;;;;;;;1.58;1.40;;;12.70;78.90;;;;;;4900286;29;20179;-80
2023/03/25 03:35:37;;;;;;;1.70;1.45;;;12.60;78.70;;;;;;4916191;29;20032;-81
2023/03/25 03:38:11;;;;;;;4.43;1.90;;;12.60;78.80;;;;;;4900901;29;20033;-80
2023/03/25 03:40:40;;;;;;;1.52;1.42;;;12.60;78.70;;;;;;4917348;29;20040;-80
2023/03/25 03:43:16;;;;;;;1.92;1.38;;;12.60;78.70;;;;;;4920260;29;20128;-81
2023/03/25 03:45:47;;;;;;;1.58;1.40;;;12.60;78.70;;;;;;4904306;29;20162;-81
2023/03/25 03:48:30;;;;;;;2.08;1.77;;;12.60;78.70;;;;;;4903976;29;20066;-82
2023/03/25 03:51:03;;;;;;;1.48;1.38;;;12.60;78.90;;;;;;4903985;29;20040;-81
2023/03/25 03:53:34;;;;;;;2.03;1.60;;;12.60;78.80;;;;;;4904686;29;20410;-81
2023/03/25 03:56:18;;;;;;;2.45;1.52;;;12.60;78.80;;;;;;4903978;29;20035;-81
2023/03/25 03:58:45;;;;;;;2.00;1.60;;;12.60;79.50;;;;;;4921220;29;20055;-82
2023/03/25 04:01:26;;;;;;;2.55;1.50;;;12.60;78.90;;;;;;4919619;29;20027;-80
2023/03/25 04:03:59;;;;;;;1.85;1.45;;;12.50;78.80;;;;;;4904057;29;20063;-81
2023/03/25 04:06:40;;;;;;;3.30;1.70;;;12.50;78.80;;;;;;4903992;29;20115;-81
2023/03/25 04:09:09;;;;;;;3.20;1.73;;;12.50;78.90;;;;;;4903489;29;20082;-80
2023/03/25 04:11:41;;;;;;;2.47;1.50;;;12.50;78.80;;;;;;4903523;29;20567;-80
2023/03/25 04:14:09;;;;;;;2.13;1.55;;;12.50;78.90;;;;;;4920251;29;20167;-81
2023/03/25 04:16:36;;;;;;;2.28;1.45;;;12.50;78.90;;;;;;4920104;29;20043;-80
2023/03/25 04:19:06;;;;;;;1.50;1.40;;;12.50;78.90;;;;;;4888059;29;20044;-81
2023/03/25 04:21:32;;;;;;;2.35;1.63;;;12.50;78.90;;;;;;4920723;29;20036;-81
2023/03/25 04:24:01;;;;;;;1.90;1.45;;;12.50;78.90;;;;;;4920375;29;20111;-81
2023/03/25 04:26:32;;;;;;;1.95;1.45;;;12.50;79.00;;;;;;4903966;29;20028;-80
2023/03/25 04:29:01;;;;;;;2.65;1.48;;;12.40;79.00;;;;;;4888733;29;20040;-81
2023/03/25 04:31:31;;;;;;;2.70;1.67;;;12.40;79.10;;;;;;4857129;29;20488;-81
2023/03/25 04:33:59;;;;;;;2.13;1.42;;;12.40;79.10;;;;;;4902963;29;20028;-80
2023/03/25 04:36:28;;;;;;;2.88;1.70;;;12.40;79.10;;;;;;4919870;29;20023;-81
2023/03/25 04:38:54;;;;;;;2.28;1.50;;;12.40;79.10;;;;;;4903851;29;20036;-82
2023/03/25 04:41:21;;;;;;;2.75;1.70;;;12.40;79.20;;;;;;4887793;29;20036;-81
2023/03/25 04:43:47;;;;;;;2.78;1.50;;;12.30;79.10;;;;;;4902710;29;20028;-81
2023/03/25 04:46:15;;;;;;;1.73;1.50;;;12.30;79.10;;;;;;4903851;29;20081;-80
2023/03/25 04:48:44;;;;;;;1.90;1.70;;;12.40;79.10;;;;;;4919839;29;20460;-80
2023/03/25 04:51:11;;;;;;;2.25;1.50;;;12.40;79.10;;;;;;4919800;29;20035;-80
2023/03/25 04:53:38;;;;;;;3.17;1.75;;;12.40;79.10;;;;;;4901930;29;20103;-81
2023/03/25 04:56:06;;;;;;;1.98;1.38;;;12.30;79.10;;;;;;4902814;29;20020;-79
2023/03/25 04:58:32;;;;;;;2.38;1.60;;;12.30;79.10;;;;;;4887903;29;20044;-80
2023/03/25 05:01:16;;;;;;;3.33;1.70;;;12.30;79.10;;;;;;4903119;29;20028;-80
2023/03/25 05:03:42;;;;;;;2.35;1.67;;;12.30;79.10;;;;;;4905875;29;20036;-81
2023/03/25 05:06:08;;;;;;;1.95;1.40;;;12.30;79.10;;;;;;4887090;29;20397;-80
2023/03/25 05:08:33;;;;;;;1.67;1.42;;;12.30;79.10;;;;;;4902553;29;20040;-80
2023/03/25 05:10:59;;;;;;;1.60;1.42;;;12.30;79.00;;;;;;4902587;29;20028;-79
2023/03/25 05:13:25;;;;;;;3.17;1.50;;;12.30;79.10;;;;;;4902752;29;20036;-80
2023/03/25 05:15:51;;;;;;;2.55;1.50;;;12.30;79.10;;;;;;4886955;29;20403;-80
2023/03/25 05:18:16;;;;;;;3.45;1.60;;;12.30;79.10;;;;;;4902358;29;20036;-80
2023/03/25 05:20:45;;;;;;;2.85;1.50;;;12.30;79.10;;;;;;4886785;29;20535;-81
2023/03/25 05:23:16;;;;;;;1.65;1.33;;;12.30;79.10;;;;;;4919771;29;20080;-80
2023/03/25 05:25:47;;;;;;;3.25;1.60;;;12.30;79.00;;;;;;4886828;29;20071;-81
2023/03/25 05:28:14;;;;;;;3.33;1.58;;;12.20;79.00;;;;;;4902283;29;20104;-81
2023/03/25 05:30:44;;;;;;;1.92;1.42;;;12.20;79.00;;;;;;4919128;29;20543;-82
2023/03/25 05:33:15;;;;;;;2.60;1.55;;;12.20;79.00;;;;;;4902671;29;20036;-81
2023/03/25 05:35:41;;;;;;;2.17;1.40;;;12.20;79.00;;;;;;4902483;29;20040;-80
2023/03/25 05:38:08;;;;;;;2.25;1.40;;;12.20;79.00;;;;;;4901886;29;20495;-80
2023/03/25 05:40:35;;;;;;;3.03;1.70;;;12.20;79.00;;;;;;4886484;29;20032;-80
2023/03/25 05:43:02;;;;;;;2.47;1.50;;;12.20;78.90;;;;;;4901869;29;20043;-81
2023/03/25 05:45:28;;;;;;;2.40;1.73;;;12.20;79.00;;;;;;4918314;29;20047;-81
2023/03/25 05:47:54;;;;;;;2.15;1.60;;;12.20;79.00;;;;;;4902278;29;20032;-80
2023/03/25 05:50:20;;;;;;;4.18;1.70;;;12.20;79.00;;;;;;4886410;29;20055;-80
2023/03/25 05:52:48;;;;;;;3.15;1.73;;;12.20;79.00;;;;;;4901526;29;20477;-80
2023/03/25 05:55:20;;;;;;;2.90;1.60;;;12.20;78.90;;;;;;4918349;29;20116;-81
2023/03/25 05:57:46;;;;;;;2.75;1.73;;;12.20;78.90;;;;;;4902210;29;20422;-81
2023/03/25 06:00:14;;;;;;;1.63;1.52;;;12.20;79.00;;;;;;4901623;29;20478;-81
2023/03/25 06:02:41;;;;;;;1.67;1.50;;;12.20;79.00;;;;;;4886284;29;20036;-80
2023/03/25 06:05:12;;;;;;;3.05;1.73;;;12.20;79.00;;;;;;4917224;29;20020;-80
2023/03/25 06:07:44;;;;;;;2.80;1.50;;;12.20;79.00;;;;;;4886056;29;20532;-80
2023/03/25 06:10:11;;;;;;;2.13;1.58;;;12.20;79.00;;;;;;4886063;29;20485;-81
2023/03/25 06:12:38;;;;;;;2.65;1.65;;;12.20;79.00;;;;;;4901944;29;20127;-81
2023/03/25 06:15:08;;;;;;;2.90;1.55;;;12.20;79.00;;;;;;4901436;29;20067;-81
2023/03/25 06:17:37;;;;;;;2.85;1.70;;;12.20;79.00;;;;;;4901869;29;20032;-80
2023/03/25 06:20:09;;;;;;;2.47;1.75;;;12.10;79.00;;;;;;4901434;29;20032;-81
2023/03/25 06:22:41;;;;;;;3.20;1.55;;;12.10;79.60;;;;;;4901380;29;20071;-80
2023/03/25 06:25:08;;;;;;;2.55;1.48;;;12.20;79.00;;;;;;4917725;29;20036;-81
2023/03/25 06:27:39;;;;;;;1.88;1.55;;;12.10;78.90;;;;;;4901068;29;20024;-81
2023/03/25 06:30:11;;;;;;;2.55;1.83;;;12.10;78.80;;;;;;4901033;29;20109;-80
2023/03/25 06:32:37;;;;;;;2.85;1.90;;;12.20;78.90;;;;;;4901805;29;20028;-80
2023/03/25 06:35:05;;;;;;;3.45;1.90;;;12.20;78.90;;;;;;4870132;29;20028;-80
2023/03/25 06:37:31;;;;;;;2.17;1.67;;;12.10;78.80;;;;;;4886235;29;20447;-80
2023/03/25 06:39:58;;;;;;;3.55;2.00;;;12.20;78.90;;;;;;4901475;29;20119;-80
2023/03/25 06:42:28;;;;;;;2.15;1.60;;;12.10;78.80;;;;;;4885322;29;20492;-82
2023/03/25 06:45:19;;;;;;;2.47;1.75;;;12.20;78.90;;;;;;4889503;29;20465;-82
2023/03/25 06:48:01;;;;;;;3.03;1.65;;;12.10;78.80;;;;;;4860176;29;20040;-81
2023/03/25 06:50:27;;;;;;;1.92;1.65;;;12.10;78.90;;;;;;4900290;29;20071;-81
2023/03/25 06:52:52;;;;;;;3.92;1.77;;;12.10;78.90;;;;;;4916572;29;20067;-82
2023/03/25 06:55:18;;;;;;;2.70;1.60;;;12.10;78.90;;;;;;4885817;29;20067;-82
2023/03/25 06:57:44;;;;;;;3.03;1.95;;;12.10;78.90;;;;;;4885777;29;20402;-82
2023/03/25 07:00:10;;;;;;;2.97;1.85;;;12.10;78.90;;;;;;4885915;29;20068;-81
2023/03/25 07:02:37;;;;;;;2.33;1.75;;;12.10;78.90;;;;;;4900942;29;20171;-82
2023/03/25 07:05:04;;;;;;;2.85;1.85;;;12.10;78.90;;;;;;4870846;29;20068;-82
2023/03/25 07:07:30;;;;;;;2.50;1.58;;;12.10;78.90;;;;;;4917915;29;20024;-81
2023/03/25 07:09:56;;;;;;;2.47;1.80;;;12.10;78.90;;;;;;4901388;29;20123;-82
2023/03/25 07:12:22;;;;;;;3.20;1.75;;;12.10;78.90;;;;;;4885063;29;20042;-81
2023/03/25 07:14:53;;;;;;;3.30;1.90;;;12.10;78.90;;;;;;4900875;29;20045;-81
2023/03/25 07:17:20;;;;;;;2.22;1.80;;;12.10;78.90;;;;;;4899853;29;20027;-82
2023/03/25 07:19:46;;;;;;;2.85;1.85;;;12.20;78.90;;;;;;4901993;29;20028;-83
2023/03/25 07:22:12;;;;;;;3.45;1.75;;;12.10;78.80;;;;;;4885063;29;20040;-82
2023/03/25 07:24:38;;;;;;;4.38;2.15;;;12.10;78.80;;;;;;4900641;29;20084;-81
2023/03/25 07:27:03;;;;;;;3.75;2.22;;;12.20;78.90;;;;;;4854982;29;20036;-82
2023/03/25 07:29:31;;;;;;;3.90;1.73;;;12.10;79.00;;;;;;4884693;29;20043;-81
2023/03/25 07:31:57;;;;;;;3.72;1.80;;;12.10;79.00;;;;;;4900295;29;20036;-82
2023/03/25 07:34:23;;;;;;;3.65;2.08;;;12.10;79.00;;;;;;4900563;29;20031;-81
2023/03/25 07:36:48;;;;;;;3.10;1.98;;;12.10;78.90;;;;;;4868902;29;20036;-82
2023/03/25 07:39:14;;;;;;;2.20;1.58;;;12.20;78.90;;;;;;4884386;29;20039;-81
2023/03/25 07:41:41;;;;;;;3.72;2.00;;;12.20;78.90;;;;;;4884431;29;20032;-81
2023/03/25 07:44:21;;;;;;;2.78;1.80;;;12.20;78.90;;;;;;4886893;29;20107;-80
2023/03/25 07:46:48;;;;;;;2.70;1.70;;;12.20;78.90;;;;;;4885109;29;20046;-81
2023/03/25 07:49:15;;;;;;;2.55;1.80;;;12.20;78.90;;;;;;4899956;29;20377;-81
2023/03/25 07:51:42;;;;;;;3.28;1.73;;;12.20;78.90;;;;;;4884940;29;20040;-81
2023/03/25 07:54:08;;;;;;;4.93;2.00;;;12.20;78.90;;;;;;4900299;29;20123;-83
2023/03/25 07:56:34;;;;;;;3.50;2.05;;;12.20;78.80;;;;;;4900257;29;20127;-84
2023/03/25 07:59:00;;;;;;;3.22;2.00;;;12.20;78.80;;;;;;4900939;29;20039;-85
2023/03/25 08:01:26;;;;;;;2.40;1.77;;;12.20;78.80;;;;;;4885561;29;20032;-85
2023/03/25 08:03:51;;;;;;;4.68;2.42;;;12.20;78.80;;;;;;4900754;29;20502;-84
2023/03/25 08:06:17;;;;;;;5.82;2.38;;;12.30;78.80;;;;;;4900576;29;20032;-84
2023/03/25 08:08:43;;;;;;;2.67;2.00;;;12.20;78.80;;;;;;4900780;29;20044;-85
2023/03/25 08:11:10;;;;;;;4.22;2.08;;;12.30;78.80;;;;;;4900715;29;20031;-85
2023/03/25 08:13:36;;;;;;;5.75;2.15;;;12.30;78.90;;;;;;4885722;29;20036;-85
2023/03/25 08:16:01;;;;;;;3.58;1.67;;;12.30;78.80;;;;;;4885344;29;20035;-85
2023/03/25 08:18:27;;;;;;;3.60;2.05;;;12.30;78.80;;;;;;4900496;29;20040;-84
2023/03/25 08:20:54;;;;;;;3.38;2.08;;;12.30;78.80;;;;;;4868785;29;20052;-82
2023/03/25 08:23:21;;;;;;;3.20;1.73;;;12.30;78.80;;;;;;4884892;29;20036;-83
2023/03/25 08:25:49;;;;;;;3.47;1.70;;;12.30;78.80;;;;;;4900419;29;20040;-83
2023/03/25 08:28:16;;;;;;;3.80;1.80;;;12.30;78.80;;;;;;4901621;29;20034;-84
2023/03/25 08:30:43;;;;;;;2.55;1.70;;;12.30;78.80;;;;;;4920206;29;20038;-83
2023/03/25 08:33:09;;;;;;;3.28;1.83;;;12.30;78.70;;;;;;4903708;29;20030;-84
2023/03/25 08:35:37;;;;;;;3.88;2.08;;;12.30;78.80;;;;;;4873082;29;20028;-82
2023/03/25 08:38:07;;;;;;;3.78;1.95;;;12.30;78.80;;;;;;4903245;29;20030;-84
2023/03/25 08:40:34;;;;;;;2.92;1.70;;;12.30;78.80;;;;;;4887864;29;20050;-82
2023/03/25 08:43:02;;;;;;;2.47;1.77;;;12.30;78.80;;;;;;4888038;29;20430;-83
2023/03/25 08:45:28;;;;;;;3.45;1.77;;;12.40;78.90;;;;;;4903530;29;20051;-83
2023/03/25 08:47:54;;;;;;;3.40;1.98;;;12.40;78.90;;;;;;4920590;29;20457;-85
2023/03/25 08:50:19;;;;;;;3.90;1.88;;;12.40;78.90;;;;;;4920616;29;20461;-83
2023/03/25 08:52:46;;;;;;;5.13;2.00;;;12.40;78.90;;;;;;4903891;29;20028;-82
2023/03/25 08:55:15;;;;;;;2.90;1.70;;;12.40;78.90;;;;;;4888072;29;20347;-83
2023/03/25 08:57:41;;;;;;;4.18;1.73;;;12.40;78.90;;;;;;4887300;29;20063;-82
2023/03/25 09:00:15;;;;;;;2.60;1.70;;;12.40;78.90;;;;;;4888300;29;20075;-83
2023/03/25 09:02:42;;;;;;;3.97;2.40;;;12.40;78.80;;;;;;4888230;29;20039;-84
2023/03/25 09:05:14;;;;;;;3.80;1.80;;;12.50;78.80;;;;;;4887958;29;20464;-83
2023/03/25 09:07:40;;;;;;;4.68;1.80;;;12.50;78.90;;;;;;4903345;29;20473;-84
2023/03/25 09:10:07;;;;;;;4.30;2.22;;;12.50;78.80;;;;;;4903133;29;20040;-84
2023/03/25 09:12:33;;;;;;;3.33;1.85;;;12.50;78.80;;;;;;4887653;29;20126;-84
2023/03/25 09:14:58;;;;;;;4.65;1.80;;;12.50;78.80;;;;;;4856549;29;20514;-86
2023/03/25 09:17:24;;;;;;;2.78;1.70;;;12.50;78.80;;;;;;4888495;29;20387;-87
2023/03/25 09:19:50;;;;;;;3.13;1.80;;;12.50;78.80;;;;;;4888430;29;20044;-84
2023/03/25 09:22:16;;;;;;;5.57;2.20;;;12.50;78.80;;;;;;4887632;29;20043;-85
2023/03/25 09:24:42;;;;;;;4.38;2.03;;;12.60;78.80;;;;;;4919868;29;20024;-85
2023/03/25 09:27:08;;;;;;;4.43;1.73;;;12.60;78.80;;;;;;4887327;29;20505;-84
2023/03/25 09:29:34;;;;;;;4.05;1.88;;;12.60;78.80;;;;;;4919865;29;20454;-84
2023/03/25 09:32:00;;;;;;;4.10;1.80;;;12.60;78.80;;;;;;4887052;29;20036;-83
2023/03/25 09:34:26;;;;;;;3.13;1.70;;;12.60;78.80;;;;;;4902690;29;20449;-83
2023/03/25 09:36:55;;;;;;;3.75;1.75;;;12.60;78.80;;;;;;4887407;29;20065;-83
2023/03/25 09:39:21;;;;;;;3.08;1.50;;;12.60;78.80;;;;;;4871092;29;20136;-82
2023/03/25 09:42:11;;;;;;;4.18;2.03;;;12.70;78.90;;;;;;4886958;29;20052;-83
2023/03/25 09:45:11;;;;;;;4.28;2.00;;;12.70;78.90;;;;;;4902682;29;20032;-84
2023/03/25 09:47:37;;;;;;;3.88;1.92;;;12.70;78.90;;;;;;4902406;29;20055;-82
2023/03/25 09:50:11;;;;;;;5.43;1.88;;;12.70;78.80;;;;;;4887362;29;20060;-83
2023/03/25 09:52:56;;;;;;;7.05;2.22;;;12.70;78.90;;;;;;4901960;29;20059;-85
2023/03/25 09:55:30;;;;;;;3.63;1.75;;;12.70;78.90;;;;;;4902076;29;20126;-82
2023/03/25 09:58:14;;;;;;;3.10;1.80;;;12.70;78.80;;;;;;4918621;29;20032;-84
2023/03/25 10:00:40;;;;;;;4.57;1.95;;;12.70;78.80;;;;;;4902558;29;20468;-84
2023/03/25 10:03:25;;;;;;;3.30;1.67;;;12.80;78.80;;;;;;4871244;29;20111;-82
2023/03/25 10:06:12;;;;;;;3.92;2.35;;;12.80;78.90;;;;;;4917747;29;20036;-81
2023/03/25 10:09:19;;;;;;;3.53;1.85;;;12.80;78.80;;;;;;4901695;29;20036;-82
2023/03/25 10:12:21;;;;;;;4.55;1.90;;;12.80;78.90;;;;;;4917636;29;20055;-82
2023/03/25 10:14:56;;;;;;;3.70;1.67;;;12.80;78.90;;;;;;4901477;29;20043;-82
2023/03/25 10:17:38;;;;;;;2.75;1.67;;;12.90;78.80;;;;;;4902138;29;20042;-81
2023/03/25 10:20:41;;;;;;;4.30;1.75;;;12.90;78.70;;;;;;4918707;29;20047;-81
2023/03/25 10:23:40;;;;;;;3.40;1.77;;;13.00;78.80;;;;;;4884986;29;20047;-81
2023/03/25 10:26:16;;;;;;;3.00;1.60;;;13.00;78.70;;;;;;4901600;29;20505;-81
2023/03/25 10:28:51;;;;;;;5.43;1.90;;;13.00;78.70;;;;;;4917276;29;20095;-81
2023/03/25 10:31:22;;;;;;;3.10;1.60;;;13.10;78.80;;;;;;4901357;29;20035;-82
2023/03/25 10:34:03;;;;;;;3.47;1.75;;;13.10;78.70;;;;;;4885517;29;20128;-82
2023/03/25 10:36:43;;;;;;;3.45;1.73;;;13.10;78.70;;;;;;4901211;29;20039;-82
2023/03/25 10:39:20;;;;;;;3.55;1.63;;;13.10;78.70;;;;;;4901282;29;20087;-84
2023/03/25 10:42:19;;;;;;;4.35;1.88;;;13.20;78.70;;;;;;4900982;29;20051;-82
2023/03/25 10:44:45;;;;;;;3.22;1.75;;;13.20;78.70;;;;;;4880489;29;20047;-82
2023/03/25 10:47:24;;;;;;;4.43;2.13;;;13.20;78.60;;;;;;4885668;29;20040;-83
2023/03/25 10:49:51;;;;;;;3.85;1.73;;;13.20;78.60;;;;;;4900943;29;20048;-82
2023/03/25 10:52:17;;;;;;;4.63;1.70;;;13.20;78.60;;;;;;4885133;29;20118;-83
2023/03/25 10:54:53;;;;;;;4.68;1.73;;;13.30;78.70;;;;;;4885658;29;20520;-84
2023/03/25 10:57:26;;;;;;;4.95;1.60;;;13.30;78.70;;;;;;4901802;29;20492;-84
2023/03/25 11:00:17;;;;;;;3.10;1.55;;;13.30;78.70;;;;;;4902074;29;20552;-84
2023/03/25 11:02:43;;;;;;;3.22;1.50;;;13.30;78.70;;;;;;4901543;29;20044;-83
2023/03/25 11:05:11;;;;;;;5.18;1.92;;;13.40;78.70;;;;;;4901413;29;20028;-84
2023/03/25 11:07:50;;;;;;;4.28;1.90;;;13.30;78.70;;;;;;4901476;29;20036;-83
2023/03/25 11:10:18;;;;;;;3.53;1.60;;;13.40;78.80;;;;;;4901021;29;20033;-85
2023/03/25 11:12:45;;;;;;;4.60;1.83;;;13.40;78.70;;;;;;4885328;29;20039;-83
2023/03/25 11:15:21;;;;;;;5.05;1.95;;;13.40;78.80;;;;;;4917987;29;20032;-83
2023/03/25 11:18:11;;;;;;;5.43;1.80;;;13.40;78.80;;;;;;4901312;29;20115;-84
2023/03/25 11:20:39;;;;;;;5.25;1.75;;;13.40;78.80;;;;;;4900978;29;20044;-85
2023/03/25 11:23:14;;;;;;;4.93;1.77;;;13.40;78.80;;;;;;4900759;29;20028;-84
2023/03/25 11:25:42;;;;;;;3.45;1.77;;;13.40;78.80;;;;;;4916954;29;20032;-87
2023/03/25 11:28:21;;;;;;;4.07;1.60;;;13.40;78.90;;;;;;4886328;29;20032;-85
2023/03/25 11:31:17;;;;;;;3.33;1.45;;;13.40;78.90;;;;;;4900934;29;20048;-85
2023/03/25 11:34:09;;;;;;;5.07;1.75;;;13.40;78.90;;;;;;4901930;29;20038;-85
2023/03/25 11:36:45;;;;;;;4.13;1.92;;;13.40;78.90;;;;;;4876533;29;20099;-83
2023/03/25 11:39:17;;;;;;;5.05;1.70;;;13.40;78.90;;;;;;4885392;29;20043;-82
2023/03/25 11:41:44;;;;;;;3.63;1.75;;;13.50;79.00;;;;;;4900790;29;20040;-83
2023/03/25 11:44:20;;;;;;;2.22;1.38;;;13.50;78.90;;;;;;4900948;29;20457;-82
2023/03/25 11:46:51;;;;;;;2.90;1.65;;;13.50;78.90;;;;;;4901226;29;20040;-83
2023/03/25 11:49:21;;;;;;;4.75;1.65;;;13.50;78.90;;;;;;4899847;29;20095;-82
2023/03/25 11:52:06;;;;;;;5.75;2.20;;;13.50;78.90;;;;;;4900447;29;20040;-82
2023/03/25 11:54:34;;;;;;;;;;;13.50;78.90;;;;;;4901460;29;20040;-82
2023/03/25 11:57:03;;;;;;;3.63;1.40;;;13.50;78.80;;;;;;4915964;29;19962;-82
2023/03/25 11:59:44;;;;;;;4.45;1.73;;;13.50;78.70;;;;;;4884744;29;20062;-82
2023/03/25 12:02:36;;;;;;;3.53;1.58;;;13.60;78.80;;;;;;4916925;29;20039;-82
2023/03/25 12:05:11;;;;;;;2.67;1.35;;;13.50;78.80;;;;;;4919840;29;20106;-84
2023/03/25 12:07:47;;;;;;;4.93;1.85;;;13.60;78.80;;;;;;4921246;29;20060;-82
2023/03/25 12:10:34;;;;;;;3.28;1.52;;;13.60;78.80;;;;;;4920752;29;20036;-83
2023/03/25 12:13:19;;;;;;;3.72;1.60;;;13.60;78.80;;;;;;4903746;29;20171;-82
2023/03/25 12:16:06;;;;;;;2.80;1.38;;;13.60;78.80;;;;;;4919933;29;20032;-83
2023/03/25 12:18:53;;;;;;;3.90;1.40;;;13.60;78.80;;;;;;4903762;29;20087;-81
2023/03/25 12:21:54;;;;;;;4.15;1.60;;;13.60;78.80;;;;;;4903452;29;20042;-82
2023/03/25 12:24:47;;;;;;;2.83;1.42;;;13.70;78.80;;;;;;4866433;29;20036;-82
2023/03/25 12:27:34;;;;;;;3.20;1.45;;;13.70;78.80;;;;;;4904247;29;20119;-81
2023/03/25 12:30:06;;;;;;;3.38;1.67;;;13.70;78.80;;;;;;4903618;29;20032;-86
2023/03/25 12:32:50;;;;;;;2.55;1.27;;;13.70;78.80;;;;;;4903879;29;20374;-85
2023/03/25 12:35:22;;;;;;;3.83;1.75;;;13.70;78.80;;;;;;4903790;29;20179;-85
2023/03/25 12:38:02;;;;;;;2.78;1.48;;;13.80;78.80;;;;;;4903855;29;20039;-86
2023/03/25 12:41:07;;;;;;;4.43;1.60;;;13.80;78.80;;;;;;4920849;29;20036;-86
2023/03/25 12:43:55;;;;;;;3.17;1.27;;;13.80;78.80;;;;;;4903841;29;20512;-86
2023/03/25 12:46:50;;;;;;;2.78;1.50;;;13.80;78.70;;;;;;4904160;29;20245;-83
2023/03/25 12:49:50;;;;;;;2.47;1.58;;;13.80;78.70;;;;;;4890757;29;20504;-84
2023/03/25 12:52:25;;;;;;;3.20;1.40;;;13.90;78.70;;;;;;4903860;29;20059;-86
2023/03/25 12:55:18;;;;;;;2.88;1.33;;;13.90;78.60;;;;;;4903314;29;20032;-85
2023/03/25 12:58:26;;;;;;;2.90;1.42;;;13.90;78.60;;;;;;4903582;29;20086;-86
2023/03/25 13:01:09;;;;;;;5.10;1.83;;;13.90;78.60;;;;;;4895396;29;20072;-84
2023/03/25 13:03:52;;;;;;;3.17;1.50;;;13.90;78.60;;;;;;4920401;29;20083;-86
2023/03/25 13:06:43;;;;;;;2.75;1.20;;;14.00;78.70;;;;;;4903417;29;20028;-88
2023/03/25 13:09:48;;;;;;;3.33;1.15;;;14.00;78.70;;;;;;4903206;29;20036;-85
2023/03/25 13:12:44;;;;;;;3.50;1.63;;;14.00;78.60;;;;;;4903214;29;20032;-86
2023/03/25 13:15:37;;;;;;;3.35;1.20;;;14.00;78.60;;;;;;4884107;29;20374;-85
2023/03/25 13:18:12;;;;;;;2.22;1.20;;;14.00;78.60;;;;;;4903233;29;20512;-86